createdAt,value
2019-03-08T00:00:33.006Z,1.47
2019-03-08T00:03:02.361Z,1.90
2019-03-08T00:05:31.458Z,1.70
2019-03-08T00:08:00.545Z,1.83
2019-03-08T00:10:29.617Z,1.60
2019-03-08T00:12:58.775Z,1.87
2019-03-08T00:15:27.921Z,1.53
2019-03-08T00:18:03.406Z,1.50
2019-03-08T00:20:32.493Z,1.40
2019-03-08T00:23:01.555Z,1.70
2019-03-08T00:25:31.116Z,1.50
2019-03-08T00:28:00.186Z,1.67
2019-03-08T00:30:29.434Z,1.70
2019-03-08T00:32:58.905Z,1.50
2019-03-08T00:35:27.973Z,1.40
2019-03-08T00:37:57.099Z,2.10
2019-03-08T00:40:26.170Z,1.90
2019-03-08T00:42:55.304Z,2.27
2019-03-08T00:45:24.673Z,2.27
2019-03-08T00:47:53.944Z,1.87
2019-03-08T00:50:23.238Z,1.40
2019-03-08T00:52:52.328Z,1.67
2019-03-08T00:55:21.527Z,1.90
2019-03-08T00:57:50.590Z,1.50
2019-03-08T01:00:20.136Z,1.57
2019-03-08T01:02:49.817Z,1.60
2019-03-08T01:05:19.680Z,1.90
2019-03-08T01:07:48.750Z,1.80
2019-03-08T01:10:19.231Z,2.03
2019-03-08T01:12:48.897Z,1.70
2019-03-08T01:15:18.338Z,1.60
2019-03-08T01:17:50.408Z,1.40
2019-03-08T01:20:19.841Z,2.20
2019-03-08T01:22:49.427Z,2.00
2019-03-08T01:25:19.054Z,1.70
2019-03-08T01:28:01.193Z,1.67
2019-03-08T01:30:30.559Z,1.60
2019-03-08T01:32:59.727Z,1.50
2019-03-08T01:35:28.957Z,1.80
2019-03-08T01:38:00.068Z,2.00
2019-03-08T01:40:29.137Z,1.80
2019-03-08T01:42:58.508Z,1.50
2019-03-08T01:45:27.632Z,1.27
2019-03-08T01:47:56.737Z,1.60
2019-03-08T01:50:26.062Z,1.83
2019-03-08T01:52:55.191Z,1.50
2019-03-08T01:55:24.446Z,1.50
2019-03-08T01:57:53.539Z,1.90
2019-03-08T02:00:22.643Z,1.47
2019-03-08T02:02:53.158Z,1.60
2019-03-08T02:05:23.940Z,2.20
2019-03-08T02:07:56.132Z,2.17
2019-03-08T02:10:25.794Z,1.87
2019-03-08T02:12:55.406Z,1.30
2019-03-08T02:15:24.969Z,1.70
2019-03-08T02:17:54.184Z,1.40
2019-03-08T02:20:23.667Z,1.43
2019-03-08T02:22:52.737Z,1.70
2019-03-08T02:25:21.787Z,1.90
2019-03-08T02:27:51.043Z,1.57
2019-03-08T02:30:20.184Z,2.03
2019-03-08T02:32:49.435Z,1.50
2019-03-08T02:35:20.507Z,1.57
2019-03-08T02:37:49.725Z,1.53
2019-03-08T02:40:35.759Z,1.60
2019-03-08T02:43:09.992Z,1.70
2019-03-08T02:45:39.023Z,2.43
2019-03-08T02:48:08.111Z,1.50
2019-03-08T02:50:37.310Z,1.67
2019-03-08T02:53:06.487Z,1.70
2019-03-08T02:55:36.050Z,2.67
2019-03-08T02:58:05.444Z,2.10
2019-03-08T03:00:44.402Z,1.90
2019-03-08T03:03:14.095Z,1.90
2019-03-08T03:05:43.277Z,1.87
2019-03-08T03:08:12.637Z,1.87
2019-03-08T03:10:41.786Z,1.93
2019-03-08T03:13:11.034Z,1.80
2019-03-08T03:15:40.165Z,1.87
2019-03-08T03:18:09.524Z,2.13
2019-03-08T03:20:39.047Z,2.27
2019-03-08T03:23:08.317Z,2.10
2019-03-08T03:25:37.445Z,1.63
2019-03-08T03:28:06.499Z,2.73
2019-03-08T03:30:35.605Z,2.00
2019-03-08T03:33:04.770Z,2.07
2019-03-08T03:35:34.105Z,1.70
2019-03-08T03:38:03.236Z,1.80
2019-03-08T03:40:32.562Z,1.70
2019-03-08T03:43:01.603Z,2.00
2019-03-08T03:45:30.846Z,2.10
2019-03-08T03:47:59.979Z,2.40
2019-03-08T03:50:29.246Z,2.13
2019-03-08T03:52:58.503Z,1.90
2019-03-08T03:55:27.797Z,1.90
2019-03-08T03:57:58.756Z,2.07
2019-03-08T04:00:28.041Z,1.97
2019-03-08T04:02:57.486Z,1.87
2019-03-08T04:05:26.527Z,2.37
2019-03-08T04:07:55.768Z,1.80
2019-03-08T04:10:25.237Z,2.10
2019-03-08T04:12:54.283Z,1.87
2019-03-08T04:15:23.562Z,1.83
2019-03-08T04:17:52.652Z,1.80
2019-03-08T04:20:21.953Z,1.70
2019-03-08T04:22:51.272Z,2.07
2019-03-08T04:25:20.364Z,1.20
2019-03-08T04:27:49.715Z,1.90
2019-03-08T04:30:18.816Z,1.63
2019-03-08T04:32:48.171Z,1.40
2019-03-08T04:35:17.653Z,1.50
2019-03-08T04:37:46.741Z,1.80
2019-03-08T04:40:15.775Z,1.60
2019-03-08T04:42:44.964Z,1.60
2019-03-08T04:45:14.629Z,1.30
2019-03-08T04:47:43.796Z,1.40
2019-03-08T04:50:12.930Z,1.87
2019-03-08T04:52:41.956Z,1.30
2019-03-08T04:55:13.539Z,1.63
2019-03-08T04:57:42.629Z,1.40
2019-03-08T05:00:12.919Z,1.60
2019-03-08T05:02:42.198Z,1.63
2019-03-08T05:05:11.466Z,1.30
2019-03-08T05:07:40.534Z,1.50
2019-03-08T05:10:12.086Z,1.63
2019-03-08T05:12:41.463Z,1.93
2019-03-08T05:15:10.789Z,1.67
2019-03-08T05:17:39.863Z,1.60
2019-03-08T05:20:09.044Z,1.60
2019-03-08T05:22:38.359Z,1.80
2019-03-08T05:25:07.778Z,1.60
2019-03-08T05:27:36.822Z,1.50
2019-03-08T05:30:06.794Z,1.73
2019-03-08T05:32:36.315Z,1.50
2019-03-08T05:35:06.298Z,1.53
2019-03-08T05:37:35.711Z,1.47
2019-03-08T05:40:06.480Z,1.87
2019-03-08T05:42:35.599Z,2.10
2019-03-08T05:45:05.117Z,1.70
2019-03-08T05:47:34.443Z,1.70
2019-03-08T05:50:05.944Z,1.57
2019-03-08T05:52:34.988Z,1.83
2019-03-08T05:55:04.362Z,1.70
2019-03-08T05:57:33.802Z,1.90
2019-03-08T06:00:02.948Z,1.90
2019-03-08T06:02:32.004Z,1.97
2019-03-08T06:05:01.128Z,1.73
2019-03-08T06:07:30.231Z,1.37
2019-03-08T06:09:59.316Z,2.40
2019-03-08T06:12:28.579Z,1.57
2019-03-08T06:14:58.335Z,1.80
2019-03-08T06:17:29.347Z,2.17
2019-03-08T06:19:58.378Z,1.97
2019-03-08T06:22:27.531Z,1.50
2019-03-08T06:24:56.590Z,1.40
2019-03-08T06:27:25.982Z,1.90
2019-03-08T06:29:56.464Z,1.80
2019-03-08T06:32:25.627Z,2.07
2019-03-08T06:34:54.680Z,2.00
2019-03-08T06:37:23.864Z,1.80
2019-03-08T06:39:53.117Z,1.90
2019-03-08T06:42:22.315Z,1.80
2019-03-08T06:44:51.372Z,1.80
2019-03-08T06:47:20.746Z,2.37
2019-03-08T06:49:49.958Z,1.80
2019-03-08T06:52:19.192Z,1.90
2019-03-08T06:54:48.427Z,2.10
2019-03-08T06:57:17.525Z,1.70
2019-03-08T06:59:50.943Z,1.90
2019-03-08T07:02:20.485Z,1.60
2019-03-08T07:04:50.109Z,1.97
2019-03-08T07:07:19.356Z,1.80
2019-03-08T07:09:48.526Z,1.90
2019-03-08T07:12:17.609Z,1.60
2019-03-08T07:14:46.752Z,2.10
2019-03-08T07:17:16.255Z,1.50
2019-03-08T07:20:16.794Z,1.73
2019-03-08T07:23:07.362Z,1.83
2019-03-08T07:26:13.952Z,2.00
2019-03-08T07:29:06.650Z,1.97
2019-03-08T07:31:42.172Z,1.60
2019-03-08T07:34:48.770Z,2.30
2019-03-08T07:37:35.586Z,1.63
2019-03-08T07:40:22.805Z,2.80
2019-03-08T07:43:13.659Z,1.67
2019-03-08T07:46:00.488Z,2.40
2019-03-08T07:48:51.813Z,1.93
2019-03-08T07:51:29.720Z,2.10
2019-03-08T07:54:36.373Z,2.30
2019-03-08T07:57:23.511Z,1.63
2019-03-08T08:00:18.217Z,1.87
2019-03-08T08:03:09.080Z,2.10
2019-03-08T08:06:00.505Z,2.60
2019-03-08T08:08:41.321Z,2.00
2019-03-08T08:11:32.160Z,1.80
2019-03-08T08:14:23.273Z,1.90
2019-03-08T08:17:17.374Z,2.07
2019-03-08T08:20:04.289Z,2.30
2019-03-08T08:22:52.382Z,1.80
2019-03-08T08:25:37.324Z,2.40
2019-03-08T08:28:14.447Z,2.80
2019-03-08T08:31:01.597Z,2.20
2019-03-08T08:33:55.641Z,2.13
2019-03-08T08:36:43.690Z,2.43
2019-03-08T08:39:31.751Z,1.90
2019-03-08T08:42:32.156Z,2.27
2019-03-08T08:45:17.635Z,2.17
2019-03-08T08:48:00.590Z,2.47
2019-03-08T08:50:54.455Z,1.93
2019-03-08T08:53:41.155Z,2.50
2019-03-08T08:56:28.066Z,2.60
2019-03-08T08:59:25.836Z,2.80
2019-03-08T09:02:12.758Z,2.40
2019-03-08T09:05:03.942Z,2.10
2019-03-08T09:07:41.158Z,2.50
2019-03-08T09:10:26.760Z,2.53
2019-03-08T09:13:15.245Z,2.30
2019-03-08T09:15:53.160Z,2.10
2019-03-08T09:18:39.007Z,2.00
2019-03-08T09:21:26.056Z,1.90
2019-03-08T09:24:20.172Z,1.90
2019-03-08T09:27:05.930Z,1.90
2019-03-08T09:29:43.782Z,1.70
2019-03-08T09:32:31.998Z,2.07
2019-03-08T09:35:15.118Z,1.70
2019-03-08T09:38:09.179Z,2.40
2019-03-08T09:40:56.901Z,2.00
2019-03-08T09:43:37.197Z,2.20
2019-03-08T09:46:19.585Z,2.07
2019-03-08T09:49:07.743Z,2.10
2019-03-08T09:51:52.628Z,1.80
2019-03-08T09:54:46.741Z,2.03
2019-03-08T09:57:38.007Z,2.20
2019-03-08T10:00:27.139Z,2.00
2019-03-08T10:03:24.465Z,2.17
2019-03-08T10:06:11.819Z,1.90
2019-03-08T10:08:52.848Z,2.33
2019-03-08T10:11:49.985Z,2.00
2019-03-08T10:14:56.572Z,2.43
2019-03-08T10:17:47.345Z,2.37
2019-03-08T10:20:40.723Z,1.93
2019-03-08T10:23:28.762Z,1.70
2019-03-08T10:26:15.523Z,2.40
2019-03-08T10:29:12.866Z,1.77
2019-03-08T10:31:52.005Z,2.23
2019-03-08T10:34:52.364Z,2.30
2019-03-08T10:37:40.630Z,1.80
2019-03-08T10:40:29.542Z,2.20
2019-03-08T10:43:03.538Z,2.30
2019-03-08T10:45:37.640Z,2.43
2019-03-08T10:48:20.775Z,2.90
2019-03-08T10:51:24.715Z,1.90
2019-03-08T10:54:15.773Z,1.93
2019-03-08T10:57:03.014Z,2.30
2019-03-08T10:59:51.388Z,2.47
2019-03-08T11:02:38.131Z,2.03
2019-03-08T11:05:34.918Z,1.90
2019-03-08T11:08:30.022Z,2.17
2019-03-08T11:11:17.060Z,2.83
2019-03-08T11:14:08.250Z,2.30
2019-03-08T11:17:03.339Z,2.17
2019-03-08T11:19:53.486Z,2.10
2019-03-08T11:22:44.700Z,2.37
2019-03-08T11:25:35.030Z,2.17
2019-03-08T11:28:30.357Z,1.70
2019-03-08T11:31:37.226Z,2.43
2019-03-08T11:34:17.804Z,2.30
2019-03-08T11:37:04.332Z,2.27
2019-03-08T11:39:46.527Z,2.00
2019-03-08T11:42:43.946Z,2.43
2019-03-08T11:45:26.237Z,2.13
2019-03-08T11:48:18.713Z,2.33
2019-03-08T11:51:02.207Z,2.07
2019-03-08T11:54:02.721Z,2.00
2019-03-08T11:56:56.135Z,1.90
2019-03-08T11:59:40.646Z,2.17
2019-03-08T12:02:38.206Z,1.87
2019-03-08T12:05:27.857Z,1.87
2019-03-08T12:08:28.453Z,2.73
2019-03-08T12:11:29.226Z,2.13
2019-03-08T12:14:29.839Z,1.80
2019-03-08T12:17:24.210Z,2.23
2019-03-08T12:20:01.568Z,2.63
2019-03-08T12:22:56.748Z,2.00
2019-03-08T12:25:33.416Z,2.00
2019-03-08T12:28:29.527Z,1.93
2019-03-08T12:31:16.240Z,2.60
2019-03-08T12:34:00.850Z,2.40
2019-03-08T12:36:49.193Z,1.70
2019-03-08T12:39:36.050Z,1.47
2019-03-08T12:42:23.115Z,1.90
2019-03-08T12:45:29.740Z,1.60
2019-03-08T12:48:23.709Z,2.60
2019-03-08T12:50:55.794Z,2.30
2019-03-08T12:53:39.050Z,2.50
2019-03-08T12:56:14.202Z,2.90
2019-03-08T12:58:57.657Z,3.83
2019-03-08T13:01:49.373Z,5.57
2019-03-08T13:04:40.591Z,3.40
2019-03-08T13:07:25.781Z,2.50
2019-03-08T13:09:56.531Z,2.60
2019-03-08T13:12:25.636Z,3.90
2019-03-08T13:14:54.762Z,2.60
2019-03-08T13:17:24.103Z,3.40
2019-03-08T13:19:53.346Z,3.77
2019-03-08T13:22:22.603Z,4.33
2019-03-08T13:24:51.882Z,2.87
2019-03-08T13:27:20.985Z,3.37
2019-03-08T13:29:50.123Z,3.10
2019-03-08T13:32:19.299Z,2.80
2019-03-08T13:34:48.655Z,3.27
2019-03-08T13:37:17.898Z,2.67
2019-03-08T13:39:47.137Z,2.80
2019-03-08T13:42:17.351Z,2.87
2019-03-08T13:44:46.712Z,2.40
2019-03-08T13:47:15.803Z,2.20
2019-03-08T13:49:45.078Z,3.50
2019-03-08T13:52:14.410Z,2.60
2019-03-08T13:54:44.002Z,1.97
2019-03-08T13:57:13.129Z,2.10
2019-03-08T13:59:43.259Z,2.10
2019-03-08T14:02:12.335Z,2.83
2019-03-08T14:04:41.586Z,3.00
2019-03-08T14:07:10.677Z,2.47
2019-03-08T14:09:39.781Z,2.30
2019-03-08T14:12:09.234Z,2.43
2019-03-08T14:14:38.367Z,2.80
2019-03-08T14:17:07.766Z,3.47
2019-03-08T14:19:37.458Z,2.93
2019-03-08T14:22:08.759Z,2.87
2019-03-08T14:24:38.099Z,2.47
2019-03-08T14:27:07.210Z,2.10
2019-03-08T14:29:36.358Z,3.00
2019-03-08T14:32:08.555Z,1.93
2019-03-08T14:34:37.645Z,3.30
2019-03-08T14:37:08.590Z,2.63
2019-03-08T14:39:40.190Z,2.90
2019-03-08T14:42:18.044Z,2.20
2019-03-08T14:44:53.303Z,2.20
2019-03-08T14:47:33.455Z,2.90
2019-03-08T14:50:03.381Z,2.43
2019-03-08T14:52:32.528Z,2.60
2019-03-08T14:55:01.753Z,2.03
2019-03-08T14:57:30.871Z,1.80
2019-03-08T15:00:08.770Z,1.90
2019-03-08T15:02:39.592Z,1.80
2019-03-08T15:05:11.479Z,1.60
2019-03-08T15:07:41.157Z,1.63
2019-03-08T15:10:12.508Z,1.90
2019-03-08T15:12:49.120Z,1.40
2019-03-08T15:15:14.235Z,2.33
2019-03-08T15:17:45.099Z,1.63
2019-03-08T15:20:16.455Z,1.90
2019-03-08T15:22:46.091Z,1.80
2019-03-08T15:25:17.308Z,1.30
2019-03-08T15:27:46.501Z,1.77
2019-03-08T15:30:16.975Z,1.93
2019-03-08T15:32:46.445Z,1.97
2019-03-08T15:35:17.012Z,2.00
2019-03-08T15:37:46.797Z,1.97
2019-03-08T15:40:17.971Z,2.13
2019-03-08T15:42:47.275Z,1.80
2019-03-08T15:45:17.305Z,1.93
2019-03-08T15:47:47.610Z,2.60
2019-03-08T15:50:17.216Z,2.40
2019-03-08T15:52:48.994Z,2.07
2019-03-08T15:55:18.200Z,2.20
2019-03-08T15:57:47.272Z,2.10
2019-03-08T16:00:18.795Z,2.10
2019-03-08T16:02:48.712Z,2.30
2019-03-08T16:05:18.607Z,2.67
2019-03-08T16:07:48.729Z,2.40
2019-03-08T16:10:19.228Z,1.90
2019-03-08T16:12:48.544Z,1.83
2019-03-08T16:15:17.770Z,2.10
2019-03-08T16:17:47.141Z,1.83
2019-03-08T16:20:16.877Z,2.03
2019-03-08T16:22:48.399Z,2.33
2019-03-08T16:25:17.911Z,2.77
2019-03-08T16:27:47.119Z,2.27
2019-03-08T16:30:20.627Z,2.70
2019-03-08T16:32:58.264Z,2.37
2019-03-08T16:35:31.311Z,1.60
2019-03-08T16:38:14.493Z,1.97
2019-03-08T16:41:04.188Z,2.37
2019-03-08T16:43:42.013Z,1.90
2019-03-08T16:46:34.848Z,2.70
2019-03-08T16:49:28.819Z,1.87
2019-03-08T16:52:23.334Z,1.90
2019-03-08T16:55:05.491Z,2.27
2019-03-08T16:57:52.182Z,1.97
2019-03-08T17:00:40.431Z,2.13
2019-03-08T17:03:27.073Z,2.97
2019-03-08T17:06:26.391Z,2.10
2019-03-08T17:09:32.340Z,2.47
2019-03-08T17:12:18.833Z,2.20
2019-03-08T17:15:16.315Z,2.83
2019-03-08T17:18:05.723Z,2.33
2019-03-08T17:21:00.379Z,2.33
2019-03-08T17:26:50.141Z,3.20
2019-03-08T17:29:33.515Z,3.07
2019-03-08T17:32:24.846Z,2.70
2019-03-08T17:35:16.304Z,3.50
2019-03-08T17:38:09.101Z,6.00
2019-03-08T17:41:12.289Z,4.83
2019-03-08T17:44:02.201Z,3.53
2019-03-08T17:47:02.230Z,3.30
2019-03-08T17:49:57.914Z,2.60
2019-03-08T17:52:46.927Z,3.20
2019-03-08T17:55:36.801Z,3.10
2019-03-08T17:58:26.808Z,3.57
2019-03-08T18:01:19.496Z,3.60
2019-03-08T18:04:01.281Z,3.00
2019-03-08T18:06:47.062Z,3.60
2019-03-08T18:09:25.595Z,3.10
2019-03-08T18:12:12.200Z,2.70
2019-03-08T18:15:18.636Z,3.03
2019-03-08T18:18:09.281Z,3.53
2019-03-08T18:21:09.913Z,3.40
2019-03-08T18:24:00.191Z,7.23
2019-03-08T18:26:48.556Z,5.23
2019-03-08T18:29:46.093Z,7.10
2019-03-08T18:32:25.465Z,4.73
2019-03-08T18:35:17.090Z,3.77
2019-03-08T18:38:08.390Z,4.83
2019-03-08T18:40:54.475Z,5.90
2019-03-08T18:43:36.783Z,6.80
2019-03-08T18:46:33.565Z,6.00
2019-03-08T18:49:37.072Z,7.57
2019-03-08T18:52:27.978Z,6.30
2019-03-08T18:55:05.502Z,6.77
2019-03-08T18:57:56.862Z,6.60
2019-03-08T19:00:33.742Z,5.77
2019-03-08T19:03:25.648Z,5.80
2019-03-08T19:06:17.242Z,6.60
2019-03-08T19:09:06.869Z,6.40
2019-03-08T19:11:53.049Z,5.03
2019-03-08T19:14:44.507Z,4.57
2019-03-08T19:17:39.505Z,5.13
2019-03-08T19:20:26.782Z,5.90
2019-03-08T19:23:36.764Z,5.10
2019-03-08T19:26:15.430Z,7.20
2019-03-08T19:29:02.730Z,7.20
2019-03-08T19:31:58.120Z,7.47
2019-03-08T19:34:42.059Z,8.73
2019-03-08T19:37:30.451Z,12.33
2019-03-08T19:40:21.447Z,15.23
2019-03-08T19:43:09.826Z,6.40
2019-03-08T19:45:49.145Z,12.00
2019-03-08T19:48:43.762Z,7.90
2019-03-08T19:51:30.399Z,7.83
2019-03-08T19:54:26.947Z,9.97
2019-03-08T19:57:16.979Z,7.97
2019-03-08T20:00:10.628Z,8.27
2019-03-08T20:02:48.813Z,9.20
2019-03-08T20:05:38.742Z,8.43
2019-03-08T20:08:35.926Z,8.37
2019-03-08T20:11:27.586Z,7.20
2019-03-08T20:14:30.882Z,7.00
2019-03-08T20:17:19.840Z,6.03
2019-03-08T20:20:13.172Z,3.43
2019-03-08T20:22:54.088Z,2.97
2019-03-08T20:25:45.535Z,3.40
2019-03-08T20:28:33.339Z,4.40
2019-03-08T20:31:15.969Z,3.70
2019-03-08T20:33:56.563Z,3.17
2019-03-08T20:36:50.061Z,3.60
2019-03-08T20:39:37.351Z,2.53
2019-03-08T20:42:21.686Z,3.03
2019-03-08T20:45:02.889Z,3.30
2019-03-08T20:47:33.655Z,3.27
2019-03-08T20:50:04.196Z,3.43
2019-03-08T20:52:33.620Z,3.40
2019-03-08T20:55:02.678Z,3.20
2019-03-08T20:57:32.409Z,3.13
2019-03-08T21:00:03.017Z,2.87
2019-03-08T21:02:32.530Z,2.90
2019-03-08T21:05:01.638Z,3.20
2019-03-08T21:07:30.824Z,2.70
2019-03-08T21:10:01.212Z,2.83
2019-03-08T21:12:30.391Z,2.77
2019-03-08T21:14:59.525Z,3.60
2019-03-08T21:17:28.844Z,2.80
2019-03-08T21:19:57.915Z,2.40
2019-03-08T21:22:28.519Z,2.73
2019-03-08T21:24:59.818Z,2.87
2019-03-08T21:27:28.934Z,3.10
2019-03-08T21:29:58.212Z,3.37
2019-03-08T21:32:27.411Z,3.30
2019-03-08T21:34:56.675Z,4.00
2019-03-08T21:37:25.916Z,3.97
2019-03-08T21:39:55.040Z,4.07
2019-03-08T21:42:24.290Z,3.87
2019-03-08T21:44:54.194Z,4.40
2019-03-08T21:47:24.586Z,3.43
2019-03-08T21:49:55.334Z,3.50
2019-03-08T21:52:24.636Z,3.53
2019-03-08T21:54:54.353Z,3.80
2019-03-08T21:57:23.964Z,3.90
2019-03-08T21:59:53.246Z,4.40
2019-03-08T22:02:22.726Z,3.70
2019-03-08T22:04:54.396Z,4.00
2019-03-08T22:07:23.812Z,3.43
2019-03-08T22:10:12.064Z,3.33
2019-03-08T22:12:41.963Z,4.00
2019-03-08T22:15:11.524Z,3.77
2019-03-08T22:17:40.576Z,3.50
2019-03-08T22:20:09.692Z,5.03
2019-03-08T22:22:40.720Z,4.57
2019-03-08T22:25:11.805Z,4.07
2019-03-08T22:27:41.573Z,3.80
2019-03-08T22:30:14.894Z,3.13
2019-03-08T22:32:44.393Z,3.40
2019-03-08T22:35:13.492Z,3.23
2019-03-08T22:37:45.636Z,4.27
2019-03-08T22:40:15.049Z,4.13
2019-03-08T22:42:44.138Z,3.90
2019-03-08T22:45:13.899Z,6.40
2019-03-08T22:47:46.113Z,5.17
2019-03-08T22:50:16.083Z,5.27
2019-03-08T22:52:45.552Z,4.17
2019-03-08T22:55:15.020Z,6.37
2019-03-08T22:57:44.708Z,7.57
2019-03-08T23:00:53.118Z,4.50
2019-03-08T23:03:23.912Z,3.57
2019-03-08T23:05:53.272Z,3.33
2019-03-08T23:08:22.491Z,2.90
2019-03-08T23:10:51.821Z,4.10
2019-03-08T23:13:21.683Z,3.27
2019-03-08T23:15:51.007Z,2.90
2019-03-08T23:18:20.143Z,2.63
2019-03-08T23:20:49.550Z,2.83
2019-03-08T23:23:18.883Z,2.90
2019-03-08T23:25:48.010Z,2.93
2019-03-08T23:28:42.634Z,3.37
2019-03-08T23:31:28.441Z,3.50
2019-03-08T23:33:57.520Z,3.50
2019-03-08T23:36:27.014Z,2.83
2019-03-08T23:38:56.812Z,3.23
2019-03-08T23:41:25.887Z,3.40
2019-03-08T23:43:55.313Z,3.10
2019-03-08T23:46:25.275Z,2.70
2019-03-08T23:48:54.523Z,3.30
2019-03-08T23:51:23.863Z,3.27
2019-03-08T23:53:54.253Z,3.17
2019-03-08T23:56:23.497Z,3.00
2019-03-08T23:58:52.875Z,2.87
